sensor_id;sensor_type;location;lat;lon;timestamp;pressure;altitude;pressure_sealevel;temperature
28803;BMP280;15949;55.656;37.422;2022-07-06T00:02:16;99414.56;;;16.08
28803;BMP280;15949;55.656;37.422;2022-07-06T00:07:22;99421.22;;;16.12
28803;BMP280;15949;55.656;37.422;2022-07-06T00:12:28;99426.16;;;16.14
28803;BMP280;15949;55.656;37.422;2022-07-06T00:17:33;99408.25;;;16.11
28803;BMP280;15949;55.656;37.422;2022-07-06T00:22:39;99401.41;;;16.10
28803;BMP280;15949;55.656;37.422;2022-07-06T00:27:44;99397.50;;;16.11
28803;BMP280;15949;55.656;37.422;2022-07-06T00:32:50;99385.84;;;16.14
28803;BMP280;15949;55.656;37.422;2022-07-06T00:37:56;99382.41;;;16.13
28803;BMP280;15949;55.656;37.422;2022-07-06T00:43:01;99385.84;;;16.14
28803;BMP280;15949;55.656;37.422;2022-07-06T00:48:07;99392.44;;;16.13
28803;BMP280;15949;55.656;37.422;2022-07-06T00:53:13;99393.63;;;16.12
28803;BMP280;15949;55.656;37.422;2022-07-06T00:58:19;99396.03;;;16.10
28803;BMP280;15949;55.656;37.422;2022-07-06T01:03:25;99391.34;;;16.05
28803;BMP280;15949;55.656;37.422;2022-07-06T01:08:30;99399.09;;;16.03
28803;BMP280;15949;55.656;37.422;2022-07-06T01:13:37;99394.41;;;15.98
28803;BMP280;15949;55.656;37.422;2022-07-06T01:18:43;99396.81;;;15.96
28803;BMP280;15949;55.656;37.422;2022-07-06T01:23:48;99402.38;;;15.92
28803;BMP280;15949;55.656;37.422;2022-07-06T01:28:54;99399.22;;;15.94
28803;BMP280;15949;55.656;37.422;2022-07-06T01:34:00;99403.66;;;15.97
28803;BMP280;15949;55.656;37.422;2022-07-06T01:39:08;99406.06;;;15.95
28803;BMP280;15949;55.656;37.422;2022-07-06T01:44:13;99408.09;;;16.00
28803;BMP280;15949;55.656;37.422;2022-07-06T01:49:19;99408.66;;;16.04
28803;BMP280;15949;55.656;37.422;2022-07-06T01:54:25;99406.06;;;16.09
28803;BMP280;15949;55.656;37.422;2022-07-06T01:59:30;99414.53;;;16.23
28803;BMP280;15949;55.656;37.422;2022-07-06T02:04:36;99413.50;;;16.35
28803;BMP280;15949;55.656;37.422;2022-07-06T02:09:41;99410.78;;;16.50
28803;BMP280;15949;55.656;37.422;2022-07-06T02:14:47;99415.81;;;16.62
28803;BMP280;15949;55.656;37.422;2022-07-06T02:19:53;99421.06;;;16.72
28803;BMP280;15949;55.656;37.422;2022-07-06T02:24:58;99412.84;;;16.81
28803;BMP280;15949;55.656;37.422;2022-07-06T02:30:05;99422.72;;;16.89
28803;BMP280;15949;55.656;37.422;2022-07-06T02:35:11;99422.81;;;16.95
28803;BMP280;15949;55.656;37.422;2022-07-06T02:40:16;99422.81;;;17.01
28803;BMP280;15949;55.656;37.422;2022-07-06T02:45:22;99426.06;;;17.05
28803;BMP280;15949;55.656;37.422;2022-07-06T02:50:28;99421.03;;;17.12
28803;BMP280;15949;55.656;37.422;2022-07-06T02:55:34;99422.59;;;17.25
28803;BMP280;15949;55.656;37.422;2022-07-06T03:00:39;99423.44;;;17.36
28803;BMP280;15949;55.656;37.422;2022-07-06T03:05:45;99412.06;;;17.47
28803;BMP280;15949;55.656;37.422;2022-07-06T03:10:52;99403.78;;;17.56
28803;BMP280;15949;55.656;37.422;2022-07-06T03:15:57;99398.22;;;17.65
28803;BMP280;15949;55.656;37.422;2022-07-06T03:21:03;99399.31;;;17.79
28803;BMP280;15949;55.656;37.422;2022-07-06T03:26:09;99402.06;;;17.90
28803;BMP280;15949;55.656;37.422;2022-07-06T03:31:14;99402.63;;;18.00
28803;BMP280;15949;55.656;37.422;2022-07-06T03:36:20;99403.44;;;18.12
28803;BMP280;15949;55.656;37.422;2022-07-06T03:41:25;99404.94;;;18.24
28803;BMP280;15949;55.656;37.422;2022-07-06T03:46:31;99409.94;;;18.37
28803;BMP280;15949;55.656;37.422;2022-07-06T03:51:36;99408.28;;;18.51
28803;BMP280;15949;55.656;37.422;2022-07-06T03:56:43;99413.25;;;18.63
28803;BMP280;15949;55.656;37.422;2022-07-06T04:01:48;99406.16;;;18.72
28803;BMP280;15949;55.656;37.422;2022-07-06T04:06:54;99413.28;;;18.75
28803;BMP280;15949;55.656;37.422;2022-07-06T04:11:59;99395.13;;;18.75
28803;BMP280;15949;55.656;37.422;2022-07-06T04:17:05;99403.22;;;18.75
28803;BMP280;15949;55.656;37.422;2022-07-06T04:22:29;99401.53;;;18.94
28803;BMP280;15949;55.656;37.422;2022-07-06T04:27:35;99405.50;;;19.10
28803;BMP280;15949;55.656;37.422;2022-07-06T04:32:40;99405.75;;;19.29
28803;BMP280;15949;55.656;37.422;2022-07-06T04:37:46;99394.72;;;19.33
28803;BMP280;15949;55.656;37.422;2022-07-06T04:42:52;99391.50;;;19.51
28803;BMP280;15949;55.656;37.422;2022-07-06T04:47:57;99390.97;;;19.75
28803;BMP280;15949;55.656;37.422;2022-07-06T04:53:03;99398.81;;;19.95
28803;BMP280;15949;55.656;37.422;2022-07-06T04:58:09;99384.97;;;20.16
28803;BMP280;15949;55.656;37.422;2022-07-06T05:03:14;99392.25;;;20.38
28803;BMP280;15949;55.656;37.422;2022-07-06T05:08:20;99389.19;;;20.64
28803;BMP280;15949;55.656;37.422;2022-07-06T05:13:26;99379.66;;;20.87
28803;BMP280;15949;55.656;37.422;2022-07-06T05:18:31;99375.91;;;21.01
28803;BMP280;15949;55.656;37.422;2022-07-06T05:23:37;99375.03;;;21.18
28803;BMP280;15949;55.656;37.422;2022-07-06T05:28:42;99372.59;;;21.39
28803;BMP280;15949;55.656;37.422;2022-07-06T05:33:48;99377.53;;;21.40
28803;BMP280;15949;55.656;37.422;2022-07-06T05:38:54;99371.81;;;21.68
28803;BMP280;15949;55.656;37.422;2022-07-06T05:44:00;99376.47;;;21.92
28803;BMP280;15949;55.656;37.422;2022-07-06T05:49:05;99379.22;;;22.11
28803;BMP280;15949;55.656;37.422;2022-07-06T05:54:29;99379.50;;;22.26
28803;BMP280;15949;55.656;37.422;2022-07-06T05:59:35;99378.91;;;22.52
28803;BMP280;15949;55.656;37.422;2022-07-06T06:04:41;99371.41;;;22.58
28803;BMP280;15949;55.656;37.422;2022-07-06T06:09:46;99368.56;;;22.83
28803;BMP280;15949;55.656;37.422;2022-07-06T06:14:52;99364.66;;;22.97
28803;BMP280;15949;55.656;37.422;2022-07-06T06:19:58;99361.09;;;23.15
28803;BMP280;15949;55.656;37.422;2022-07-06T06:25:04;99365.38;;;23.24
28803;BMP280;15949;55.656;37.422;2022-07-06T06:30:10;99361.00;;;23.48
28803;BMP280;15949;55.656;37.422;2022-07-06T06:35:16;99356.41;;;23.69
28803;BMP280;15949;55.656;37.422;2022-07-06T06:40:21;99361.72;;;23.88
28803;BMP280;15949;55.656;37.422;2022-07-06T06:45:27;99361.97;;;24.11
28803;BMP280;15949;55.656;37.422;2022-07-06T06:50:33;99354.50;;;24.24
28803;BMP280;15949;55.656;37.422;2022-07-06T06:55:39;99361.28;;;24.52
28803;BMP280;15949;55.656;37.422;2022-07-06T07:00:44;99367.91;;;24.85
28803;BMP280;15949;55.656;37.422;2022-07-06T07:05:50;99365.66;;;25.04
28803;BMP280;15949;55.656;37.422;2022-07-06T07:10:56;99359.81;;;25.21
28803;BMP280;15949;55.656;37.422;2022-07-06T07:16:01;99370.97;;;25.39
28803;BMP280;15949;55.656;37.422;2022-07-06T07:21:07;99360.84;;;25.54
28803;BMP280;15949;55.656;37.422;2022-07-06T07:26:12;99359.75;;;25.50
28803;BMP280;15949;55.656;37.422;2022-07-06T07:31:18;99357.13;;;25.73
28803;BMP280;15949;55.656;37.422;2022-07-06T07:36:24;99357.16;;;25.88
28803;BMP280;15949;55.656;37.422;2022-07-06T07:41:30;99364.66;;;26.03
28803;BMP280;15949;55.656;37.422;2022-07-06T07:46:36;99360.66;;;26.04
28803;BMP280;15949;55.656;37.422;2022-07-06T07:51:41;99366.50;;;26.15
28803;BMP280;15949;55.656;37.422;2022-07-06T07:56:47;99357.78;;;26.17
28803;BMP280;15949;55.656;37.422;2022-07-06T08:01:53;99362.88;;;26.43
28803;BMP280;15949;55.656;37.422;2022-07-06T08:06:58;99357.94;;;26.65
28803;BMP280;15949;55.656;37.422;2022-07-06T08:12:04;99349.41;;;26.76
28803;BMP280;15949;55.656;37.422;2022-07-06T08:17:10;99360.69;;;26.95
28803;BMP280;15949;55.656;37.422;2022-07-06T08:22:15;99356.28;;;26.92
28803;BMP280;15949;55.656;37.422;2022-07-06T08:27:21;99360.22;;;27.14
28803;BMP280;15949;55.656;37.422;2022-07-06T08:32:27;99347.22;;;27.45
28803;BMP280;15949;55.656;37.422;2022-07-06T08:37:32;99355.16;;;27.03
28803;BMP280;15949;55.656;37.422;2022-07-06T08:42:38;99345.31;;;27.15
28803;BMP280;15949;55.656;37.422;2022-07-06T08:47:44;99347.63;;;27.34
28803;BMP280;15949;55.656;37.422;2022-07-06T08:52:50;99342.00;;;27.17
28803;BMP280;15949;55.656;37.422;2022-07-06T08:57:57;99336.59;;;27.01
28803;BMP280;15949;55.656;37.422;2022-07-06T09:03:02;99334.16;;;27.21
28803;BMP280;15949;55.656;37.422;2022-07-06T09:08:08;99339.44;;;27.19
28803;BMP280;15949;55.656;37.422;2022-07-06T09:13:14;99329.63;;;27.16
28803;BMP280;15949;55.656;37.422;2022-07-06T09:18:23;99333.44;;;27.61
28803;BMP280;15949;55.656;37.422;2022-07-06T09:23:28;99321.72;;;28.17
28803;BMP280;15949;55.656;37.422;2022-07-06T09:28:41;99324.53;;;28.52
28803;BMP280;15949;55.656;37.422;2022-07-06T09:34:04;99332.88;;;27.95
28803;BMP280;15949;55.656;37.422;2022-07-06T09:39:23;99316.91;;;28.68
28803;BMP280;15949;55.656;37.422;2022-07-06T09:44:30;99321.31;;;28.98
28803;BMP280;15949;55.656;37.422;2022-07-06T09:49:40;99309.19;;;29.18
28803;BMP280;15949;55.656;37.422;2022-07-06T09:54:48;99302.63;;;29.58
28803;BMP280;15949;55.656;37.422;2022-07-06T09:59:53;99309.31;;;29.74
28803;BMP280;15949;55.656;37.422;2022-07-06T10:04:59;99307.72;;;29.71
28803;BMP280;15949;55.656;37.422;2022-07-06T10:10:08;99302.66;;;29.77
28803;BMP280;15949;55.656;37.422;2022-07-06T10:15:14;99298.94;;;29.82
28803;BMP280;15949;55.656;37.422;2022-07-06T10:20:21;99291.72;;;29.97
28803;BMP280;15949;55.656;37.422;2022-07-06T10:25:27;99290.63;;;30.38
28803;BMP280;15949;55.656;37.422;2022-07-06T10:30:33;99283.13;;;30.48
28803;BMP280;15949;55.656;37.422;2022-07-06T10:35:40;99276.72;;;30.75
28803;BMP280;15949;55.656;37.422;2022-07-06T10:40:46;99274.72;;;30.08
28803;BMP280;15949;55.656;37.422;2022-07-06T10:46:14;99272.44;;;29.68
28803;BMP280;15949;55.656;37.422;2022-07-06T10:51:25;99276.16;;;30.09
28803;BMP280;15949;55.656;37.422;2022-07-06T10:56:53;99259.97;;;30.71
28803;BMP280;15949;55.656;37.422;2022-07-06T11:02:18;99254.78;;;30.56
28803;BMP280;15949;55.656;37.422;2022-07-06T11:07:24;99270.00;;;29.81
28803;BMP280;15949;55.656;37.422;2022-07-06T11:12:30;99259.09;;;30.39
28803;BMP280;15949;55.656;37.422;2022-07-06T11:17:35;99254.78;;;30.36
28803;BMP280;15949;55.656;37.422;2022-07-06T11:22:41;99249.28;;;30.36
28803;BMP280;15949;55.656;37.422;2022-07-06T11:27:48;99249.13;;;31.14
28803;BMP280;15949;55.656;37.422;2022-07-06T11:32:54;99244.56;;;31.59
28803;BMP280;15949;55.656;37.422;2022-07-06T11:38:26;99241.66;;;31.35
28803;BMP280;15949;55.656;37.422;2022-07-06T11:43:31;99234.34;;;31.50
28803;BMP280;15949;55.656;37.422;2022-07-06T11:48:37;99230.28;;;31.72
28803;BMP280;15949;55.656;37.422;2022-07-06T11:53:48;99230.75;;;31.90
28803;BMP280;15949;55.656;37.422;2022-07-06T11:58:56;99228.75;;;31.38
28803;BMP280;15949;55.656;37.422;2022-07-06T12:04:01;99237.06;;;30.78
28803;BMP280;15949;55.656;37.422;2022-07-06T12:09:10;99231.75;;;30.03
28803;BMP280;15949;55.656;37.422;2022-07-06T12:14:18;99230.56;;;29.77
28803;BMP280;15949;55.656;37.422;2022-07-06T12:19:24;99228.59;;;30.35
28803;BMP280;15949;55.656;37.422;2022-07-06T12:24:31;99225.66;;;30.62
28803;BMP280;15949;55.656;37.422;2022-07-06T12:29:37;99212.41;;;30.99
28803;BMP280;15949;55.656;37.422;2022-07-06T12:34:43;99208.34;;;30.21
28803;BMP280;15949;55.656;37.422;2022-07-06T12:39:49;99211.59;;;29.52
28803;BMP280;15949;55.656;37.422;2022-07-06T12:44:55;99211.63;;;28.98
28803;BMP280;15949;55.656;37.422;2022-07-06T12:50:09;99227.69;;;28.57
28803;BMP280;15949;55.656;37.422;2022-07-06T12:55:15;99234.28;;;28.37
28803;BMP280;15949;55.656;37.422;2022-07-06T13:00:21;99231.28;;;28.08
28803;BMP280;15949;55.656;37.422;2022-07-06T13:05:27;99234.47;;;27.79
28803;BMP280;15949;55.656;37.422;2022-07-06T13:10:33;99229.19;;;27.74
28803;BMP280;15949;55.656;37.422;2022-07-06T13:15:43;99215.72;;;27.93
28803;BMP280;15949;55.656;37.422;2022-07-06T13:20:49;99215.13;;;29.08
28803;BMP280;15949;55.656;37.422;2022-07-06T13:25:54;99225.44;;;28.90
28803;BMP280;15949;55.656;37.422;2022-07-06T13:31:00;99216.34;;;28.88
28803;BMP280;15949;55.656;37.422;2022-07-06T13:36:06;99212.34;;;29.72
28803;BMP280;15949;55.656;37.422;2022-07-06T13:41:11;99212.31;;;29.62
28803;BMP280;15949;55.656;37.422;2022-07-06T13:46:17;99202.81;;;28.99
28803;BMP280;15949;55.656;37.422;2022-07-06T13:51:24;99211.97;;;29.48
28803;BMP280;15949;55.656;37.422;2022-07-06T13:56:30;99208.78;;;30.08
28803;BMP280;15949;55.656;37.422;2022-07-06T14:01:36;99204.41;;;30.43
28803;BMP280;15949;55.656;37.422;2022-07-06T14:06:41;99196.78;;;30.23
28803;BMP280;15949;55.656;37.422;2022-07-06T14:11:47;99194.19;;;29.96
28803;BMP280;15949;55.656;37.422;2022-07-06T14:16:52;99199.50;;;29.74
28803;BMP280;15949;55.656;37.422;2022-07-06T14:21:59;99202.81;;;28.99
28803;BMP280;15949;55.656;37.422;2022-07-06T14:27:05;99201.47;;;28.64
28803;BMP280;15949;55.656;37.422;2022-07-06T14:32:10;99198.06;;;29.73
28803;BMP280;15949;55.656;37.422;2022-07-06T14:37:17;99200.53;;;30.46
28803;BMP280;15949;55.656;37.422;2022-07-06T14:42:22;99178.53;;;31.28
28803;BMP280;15949;55.656;37.422;2022-07-06T14:47:28;99169.06;;;32.16
28803;BMP280;15949;55.656;37.422;2022-07-06T14:52:33;99177.69;;;32.22
28803;BMP280;15949;55.656;37.422;2022-07-06T14:57:39;99168.63;;;32.43
28803;BMP280;15949;55.656;37.422;2022-07-06T15:02:45;99176.00;;;33.09
28803;BMP280;15949;55.656;37.422;2022-07-06T15:07:50;99177.41;;;34.09
28803;BMP280;15949;55.656;37.422;2022-07-06T15:12:56;99162.81;;;33.44
28803;BMP280;15949;55.656;37.422;2022-07-06T15:18:02;99158.03;;;33.33
28803;BMP280;15949;55.656;37.422;2022-07-06T15:23:08;99153.31;;;32.75
28803;BMP280;15949;55.656;37.422;2022-07-06T15:28:14;99149.53;;;32.24
28803;BMP280;15949;55.656;37.422;2022-07-06T15:33:21;99156.66;;;31.30
28803;BMP280;15949;55.656;37.422;2022-07-06T15:38:26;99157.63;;;31.77
28803;BMP280;15949;55.656;37.422;2022-07-06T15:43:33;99170.13;;;30.54
28803;BMP280;15949;55.656;37.422;2022-07-06T15:48:38;99175.66;;;29.96
28803;BMP280;15949;55.656;37.422;2022-07-06T15:53:44;99179.88;;;29.31
28803;BMP280;15949;55.656;37.422;2022-07-06T15:58:50;99171.88;;;28.35
28803;BMP280;15949;55.656;37.422;2022-07-06T16:03:56;99182.88;;;28.28
28803;BMP280;15949;55.656;37.422;2022-07-06T16:09:02;99175.28;;;27.84
28803;BMP280;15949;55.656;37.422;2022-07-06T16:14:07;99189.59;;;27.25
28803;BMP280;15949;55.656;37.422;2022-07-06T16:19:14;99186.03;;;26.67
28803;BMP280;15949;55.656;37.422;2022-07-06T16:24:20;99179.41;;;26.07
28803;BMP280;15949;55.656;37.422;2022-07-06T16:29:25;99195.38;;;25.42
28803;BMP280;15949;55.656;37.422;2022-07-06T16:34:31;99199.38;;;24.89
28803;BMP280;15949;55.656;37.422;2022-07-06T16:39:36;99210.38;;;24.19
28803;BMP280;15949;55.656;37.422;2022-07-06T16:44:43;99232.69;;;23.62
28803;BMP280;15949;55.656;37.422;2022-07-06T16:49:48;99252.63;;;23.04
28803;BMP280;15949;55.656;37.422;2022-07-06T16:54:54;99257.38;;;22.45
28803;BMP280;15949;55.656;37.422;2022-07-06T17:00:00;99271.22;;;22.09
28803;BMP280;15949;55.656;37.422;2022-07-06T17:05:06;99272.31;;;21.82
28803;BMP280;15949;55.656;37.422;2022-07-06T17:10:11;99273.50;;;21.68
28803;BMP280;15949;55.656;37.422;2022-07-06T17:15:17;99275.22;;;21.46
28803;BMP280;15949;55.656;37.422;2022-07-06T17:20:22;99267.56;;;21.26
28803;BMP280;15949;55.656;37.422;2022-07-06T17:25:28;99262.38;;;21.03
28803;BMP280;15949;55.656;37.422;2022-07-06T17:30:34;99242.66;;;20.79
28803;BMP280;15949;55.656;37.422;2022-07-06T17:35:41;99240.09;;;20.62
28803;BMP280;15949;55.656;37.422;2022-07-06T17:40:47;99221.00;;;20.48
28803;BMP280;15949;55.656;37.422;2022-07-06T17:45:53;99221.56;;;20.41
28803;BMP280;15949;55.656;37.422;2022-07-06T17:50:59;99200.25;;;20.32
28803;BMP280;15949;55.656;37.422;2022-07-06T17:56:04;99198.34;;;20.21
28803;BMP280;15949;55.656;37.422;2022-07-06T18:01:10;99185.34;;;20.20
28803;BMP280;15949;55.656;37.422;2022-07-06T18:06:16;99167.66;;;20.19
28803;BMP280;15949;55.656;37.422;2022-07-06T18:11:21;99158.59;;;20.11
28803;BMP280;15949;55.656;37.422;2022-07-06T18:16:29;99161.38;;;20.00
28803;BMP280;15949;55.656;37.422;2022-07-06T18:21:35;99159.91;;;19.98
28803;BMP280;15949;55.656;37.422;2022-07-06T18:26:41;99160.16;;;20.01
28803;BMP280;15949;55.656;37.422;2022-07-06T18:31:48;99157.38;;;20.12
28803;BMP280;15949;55.656;37.422;2022-07-06T18:36:53;99158.28;;;20.20
28803;BMP280;15949;55.656;37.422;2022-07-06T18:41:59;99156.28;;;20.26
28803;BMP280;15949;55.656;37.422;2022-07-06T18:47:05;99157.31;;;20.23
28803;BMP280;15949;55.656;37.422;2022-07-06T18:52:10;99154.06;;;20.24
28803;BMP280;15949;55.656;37.422;2022-07-06T18:57:16;99155.13;;;20.16
28803;BMP280;15949;55.656;37.422;2022-07-06T19:02:21;99147.97;;;20.18
28803;BMP280;15949;55.656;37.422;2022-07-06T19:07:27;99142.06;;;20.20
28803;BMP280;15949;55.656;37.422;2022-07-06T19:12:32;99142.06;;;20.20
28803;BMP280;15949;55.656;37.422;2022-07-06T19:17:38;99153.88;;;20.17
28803;BMP280;15949;55.656;37.422;2022-07-06T19:22:45;99150.50;;;20.11
28803;BMP280;15949;55.656;37.422;2022-07-06T19:27:50;99162.59;;;20.04
28803;BMP280;15949;55.656;37.422;2022-07-06T19:32:56;99156.97;;;19.96
28803;BMP280;15949;55.656;37.422;2022-07-06T19:38:02;99150.09;;;19.95
28803;BMP280;15949;55.656;37.422;2022-07-06T19:43:08;99141.78;;;19.93
28803;BMP280;15949;55.656;37.422;2022-07-06T19:48:13;99146.44;;;19.93
28803;BMP280;15949;55.656;37.422;2022-07-06T19:53:19;99147.22;;;19.82
28803;BMP280;15949;55.656;37.422;2022-07-06T19:58:25;99140.38;;;19.81
28803;BMP280;15949;55.656;37.422;2022-07-06T20:03:31;99146.28;;;19.80
28803;BMP280;15949;55.656;37.422;2022-07-06T20:08:37;99145.28;;;19.77
28803;BMP280;15949;55.656;37.422;2022-07-06T20:13:43;99139.16;;;19.77
28803;BMP280;15949;55.656;37.422;2022-07-06T20:18:48;99134.25;;;19.75
28803;BMP280;15949;55.656;37.422;2022-07-06T20:23:54;99140.66;;;19.72
28803;BMP280;15949;55.656;37.422;2022-07-06T20:29:00;99135.28;;;19.66
28803;BMP280;15949;55.656;37.422;2022-07-06T20:34:06;99136.53;;;19.60
28803;BMP280;15949;55.656;37.422;2022-07-06T20:39:12;99123.81;;;19.49
28803;BMP280;15949;55.656;37.422;2022-07-06T20:44:17;99124.63;;;19.38
28803;BMP280;15949;55.656;37.422;2022-07-06T20:49:23;99125.38;;;19.33
28803;BMP280;15949;55.656;37.422;2022-07-06T20:54:28;99120.22;;;19.30
28803;BMP280;15949;55.656;37.422;2022-07-06T20:59:34;99117.31;;;19.28
28803;BMP280;15949;55.656;37.422;2022-07-06T21:04:41;99119.50;;;19.29
28803;BMP280;15949;55.656;37.422;2022-07-06T21:09:47;99114.09;;;19.29
28803;BMP280;15949;55.656;37.422;2022-07-06T21:14:53;99109.66;;;19.37
28803;BMP280;15949;55.656;37.422;2022-07-06T21:19:58;99110.13;;;19.41
28803;BMP280;15949;55.656;37.422;2022-07-06T21:25:04;99109.84;;;19.51
28803;BMP280;15949;55.656;37.422;2022-07-06T21:30:10;99098.72;;;19.60
28803;BMP280;15949;55.656;37.422;2022-07-06T21:35:16;99107.81;;;19.62
28803;BMP280;15949;55.656;37.422;2022-07-06T21:40:21;99112.41;;;19.73
28803;BMP280;15949;55.656;37.422;2022-07-06T21:45:27;99113.09;;;19.79
28803;BMP280;15949;55.656;37.422;2022-07-06T21:50:33;99111.09;;;19.85
28803;BMP280;15949;55.656;37.422;2022-07-06T21:55:39;99106.16;;;19.89
28803;BMP280;15949;55.656;37.422;2022-07-06T22:00:45;99105.53;;;19.72
28803;BMP280;15949;55.656;37.422;2022-07-06T22:05:51;99103.72;;;19.44
28803;BMP280;15949;55.656;37.422;2022-07-06T22:10:56;99099.38;;;19.30
28803;BMP280;15949;55.656;37.422;2022-07-06T22:16:02;99097.19;;;19.23
28803;BMP280;15949;55.656;37.422;2022-07-06T22:21:09;99095.47;;;19.20
28803;BMP280;15949;55.656;37.422;2022-07-06T22:26:16;99103.13;;;19.16
28803;BMP280;15949;55.656;37.422;2022-07-06T22:31:25;99093.28;;;19.18
28803;BMP280;15949;55.656;37.422;2022-07-06T22:36:31;99087.41;;;19.14
28803;BMP280;15949;55.656;37.422;2022-07-06T22:41:39;99085.00;;;19.11
28803;BMP280;15949;55.656;37.422;2022-07-06T22:46:45;99085.97;;;19.08
28803;BMP280;15949;55.656;37.422;2022-07-06T22:51:50;99079.34;;;19.09
28803;BMP280;15949;55.656;37.422;2022-07-06T22:56:56;99077.88;;;19.08
28803;BMP280;15949;55.656;37.422;2022-07-06T23:02:01;99072.47;;;19.08
28803;BMP280;15949;55.656;37.422;2022-07-06T23:07:07;99070.00;;;19.10
28803;BMP280;15949;55.656;37.422;2022-07-06T23:12:13;99066.56;;;19.15
28803;BMP280;15949;55.656;37.422;2022-07-06T23:17:18;99062.63;;;19.16
28803;BMP280;15949;55.656;37.422;2022-07-06T23:22:24;99066.28;;;19.18
28803;BMP280;15949;55.656;37.422;2022-07-06T23:27:29;99060.16;;;19.18
28803;BMP280;15949;55.656;37.422;2022-07-06T23:32:35;99058.91;;;19.19
28803;BMP280;15949;55.656;37.422;2022-07-06T23:37:41;99052.28;;;19.20
28803;BMP280;15949;55.656;37.422;2022-07-06T23:42:46;99052.75;;;19.24
28803;BMP280;15949;55.656;37.422;2022-07-06T23:47:52;99051.00;;;19.32
28803;BMP280;15949;55.656;37.422;2022-07-06T23:52:58;99046.59;;;19.35
28803;BMP280;15949;55.656;37.422;2022-07-06T23:58:03;99045.78;;;19.40
